createdAt,value
2023-04-18T00:03:28.897Z,101992.29000000001
2023-04-18T00:07:28.038Z,101994.44
2023-04-18T00:11:29.005Z,101991.09
2023-04-18T00:15:28.277Z,101990.03
2023-04-18T00:19:28.062Z,101994.26
2023-04-18T00:23:29.225Z,101992.3
2023-04-18T00:31:28.178Z,101993.34
2023-04-18T00:35:27.890Z,101991.69
2023-04-18T00:39:28.018Z,101994.76
2023-04-18T00:43:27.894Z,101985.41
2023-04-18T00:47:28.270Z,101987.17
2023-04-18T00:51:28.060Z,101980.56
2023-04-18T00:59:28.648Z,101974.25
2023-04-18T01:03:28.194Z,101968.34
2023-04-18T01:07:29.766Z,101965.41
2023-04-18T01:11:28.259Z,101961.44
2023-04-18T01:15:28.205Z,101962.28
2023-04-18T01:19:28.065Z,101960.86
2023-04-18T01:23:29.220Z,101959.05
2023-04-18T01:35:29.062Z,101963.79
2023-04-18T01:39:28.109Z,101963.44
2023-04-18T01:43:28.496Z,101960.20999999999
2023-04-18T01:47:28.153Z,101962.89
2023-04-18T01:51:28.256Z,101960.01
2023-04-18T01:55:28.173Z,101953.34
2023-04-18T01:59:28.267Z,101954.42
2023-04-18T02:03:28.334Z,101956.56
2023-04-18T02:07:28.244Z,101951.92
2023-04-18T02:11:28.854Z,101953.49
2023-04-18T02:15:28.366Z,101951.97
2023-04-18T02:23:28.371Z,101955.66
2023-04-18T02:27:28.150Z,101956.28
2023-04-18T02:31:28.301Z,101951.11
2023-04-18T02:35:28.288Z,101946.19
2023-04-18T02:39:28.537Z,101943.19
2023-04-18T02:47:28.488Z,101940.12
2023-04-18T02:51:28.367Z,101937.28
2023-04-18T02:55:29.119Z,101934.28
2023-04-18T02:59:28.422Z,101933.17
2023-04-18T03:03:28.727Z,101928.68999999999
2023-04-18T03:07:29.774Z,101925.14
2023-04-18T03:11:28.455Z,101923.73999999999
2023-04-18T03:15:30.022Z,101926.26000000001
2023-04-18T03:19:28.609Z,101925.68
2023-04-18T03:23:28.335Z,101930.64
2023-04-18T03:27:28.565Z,101923.41
2023-04-18T03:31:28.390Z,101923.27
2023-04-18T03:35:28.600Z,101922.91
2023-04-18T03:39:28.422Z,101926.01
2023-04-18T03:43:28.487Z,101926.5
2023-04-18T03:47:30.222Z,101929.40999999999
2023-04-18T03:51:32.421Z,101927.97
2023-04-18T03:55:28.537Z,101933.7
2023-04-18T03:59:28.568Z,101929.83
2023-04-18T04:03:29.085Z,101927.70000000001
2023-04-18T04:07:28.879Z,101927.26
2023-04-18T04:11:28.508Z,101929.52
2023-04-18T04:19:28.780Z,101924.49
2023-04-18T04:27:28.671Z,101922.70999999999
2023-04-18T04:31:28.592Z,101912.05
2023-04-18T04:35:28.833Z,101905.62999999999
2023-04-18T04:39:28.545Z,101903.95999999999
2023-04-18T04:43:29.238Z,101908.04000000001
2023-04-18T04:47:28.635Z,101912.42
2023-04-18T04:51:29.048Z,101917.48999999999
2023-04-18T04:55:28.866Z,101914.64
2023-04-18T04:59:28.701Z,101908.75
2023-04-18T05:03:28.854Z,101914.03
2023-04-18T05:07:29.864Z,101914.64
2023-04-18T05:11:28.649Z,101911.3
2023-04-18T05:15:29.062Z,101913.58
2023-04-18T05:19:28.793Z,101921.22
2023-04-18T05:27:28.863Z,101917.5
2023-04-18T05:35:30.038Z,101911.33
2023-04-18T05:39:28.744Z,101914.26
2023-04-18T05:43:28.915Z,101919.59000000001
2023-04-18T05:47:29.326Z,101931.83
2023-04-18T05:51:28.923Z,101935.05
2023-04-18T05:55:28.790Z,101931.23000000001
2023-04-18T05:59:28.923Z,101922.78
2023-04-18T06:03:29.124Z,101930.24
2023-04-18T06:07:28.890Z,101939.23999999999
2023-04-18T06:11:28.848Z,101934.74
2023-04-18T06:15:29.059Z,101937.92
2023-04-18T06:19:28.828Z,101945.75
2023-04-18T06:23:29.113Z,101939.45
2023-04-18T06:27:31.424Z,101943.38
2023-04-18T06:31:29.302Z,101948.17
2023-04-18T06:35:30.053Z,101945.64
2023-04-18T06:39:29.244Z,101941.35
2023-04-18T06:43:28.918Z,101943.88
2023-04-18T06:47:30.184Z,101944.69
2023-04-18T06:51:29.068Z,101941.3
2023-04-18T06:55:29.663Z,101939.69
2023-04-18T06:59:28.950Z,101947.99
2023-04-18T07:03:29.111Z,101942.76999999999
2023-04-18T07:07:30.062Z,101939.98
2023-04-18T07:11:29.159Z,101942.89
2023-04-18T07:15:29.271Z,101941.71
2023-04-18T07:19:29.212Z,101943.3
2023-04-18T07:23:28.988Z,101940.03
2023-04-18T07:27:29.123Z,101940.62
2023-04-18T07:31:30.245Z,101940.8
2023-04-18T07:39:30.955Z,101937.36
2023-04-18T07:43:29.246Z,101940.69
2023-04-18T07:47:30.235Z,101937.57
2023-04-18T07:51:30.736Z,101931.37000000001
2023-04-18T07:55:29.679Z,101932.19
2023-04-18T07:59:31.101Z,101929.8
2023-04-18T08:03:29.400Z,101928.12
2023-04-18T08:07:30.856Z,101922.55
2023-04-18T08:15:31.375Z,101919.05
2023-04-18T08:19:29.150Z,101918.73000000001
2023-04-18T08:23:29.389Z,101921.33
2023-04-18T08:27:30.340Z,101911.19
2023-04-18T08:31:30.577Z,101903.87
2023-04-18T08:35:29.229Z,101912.66
2023-04-18T08:39:30.203Z,101911.69
2023-04-18T08:43:30.216Z,101910.65999999999
2023-04-18T08:47:30.108Z,101911.3
2023-04-18T08:51:31.968Z,101907.92
2023-04-18T08:55:29.352Z,101900.42
2023-04-18T08:59:29.541Z,101887.81
2023-04-18T09:03:38.730Z,101890.37
2023-04-18T09:07:29.758Z,101896.36
2023-04-18T09:11:30.736Z,101890.93000000001
2023-04-18T09:15:30.001Z,101888.69
2023-04-18T09:19:29.494Z,101883.09000000001
2023-04-18T09:23:29.341Z,101879.6
2023-04-18T09:27:33.727Z,101868.44
2023-04-18T09:31:29.429Z,101868.14
2023-04-18T09:35:29.537Z,101866.28
2023-04-18T09:43:29.496Z,101864.58
2023-04-18T09:47:31.294Z,101869.48999999999
2023-04-18T09:51:30.899Z,101854.04999999999
2023-04-18T09:55:30.936Z,101851.98000000001
2023-04-18T09:59:39.280Z,101842.89
2023-04-18T10:03:33.946Z,101840.75
2023-04-18T10:07:30.704Z,101836.47
2023-04-18T10:11:30.349Z,101822.99
2023-04-18T10:15:30.830Z,101817.35
2023-04-18T10:19:29.769Z,101810.65999999999
2023-04-18T10:23:34.020Z,101809.0
2023-04-18T10:27:49.488Z,101798.82
2023-04-18T10:31:38.170Z,101793.2
2023-04-18T10:35:29.579Z,101784.72
2023-04-18T10:39:29.977Z,101787.67
2023-04-18T10:43:29.684Z,101792.67
2023-04-18T10:47:29.947Z,101789.95
2023-04-18T10:51:29.759Z,101786.81
2023-04-18T10:55:30.434Z,101776.81
2023-04-18T10:59:31.323Z,101784.88
2023-04-18T11:03:31.713Z,101780.54
2023-04-18T11:07:31.576Z,101786.92
2023-04-18T11:11:29.774Z,101790.73
2023-04-18T11:15:31.004Z,101791.68
2023-04-18T11:19:29.943Z,101788.83
2023-04-18T11:23:29.694Z,101783.87
2023-04-18T11:27:30.586Z,101782.70999999999
2023-04-18T11:31:31.251Z,101789.94
2023-04-18T11:35:30.179Z,101785.56999999999
2023-04-18T11:39:33.578Z,101783.2
2023-04-18T11:43:29.980Z,101775.08
2023-04-18T11:47:32.899Z,101785.63
2023-04-18T11:51:37.269Z,101777.98
2023-04-18T11:55:29.824Z,101780.25
2023-04-18T11:59:30.107Z,101780.98
2023-04-18T12:03:30.066Z,101777.55
2023-04-18T12:07:33.317Z,101779.89
2023-04-18T12:11:29.825Z,101774.27
2023-04-18T12:15:30.936Z,101770.53
2023-04-18T12:19:31.622Z,101773.15
2023-04-18T12:23:32.825Z,101764.42
2023-04-18T12:27:48.872Z,101761.22
2023-04-18T12:31:30.154Z,101763.4
2023-04-18T12:35:31.632Z,101760.24
2023-04-18T12:39:30.024Z,101766.99
2023-04-18T12:43:29.974Z,101756.82
2023-04-18T12:47:30.613Z,101751.34000000001
2023-04-18T12:51:30.424Z,101744.98
2023-04-18T12:55:30.323Z,101735.20999999999
2023-04-18T12:59:29.889Z,101732.56999999999
2023-04-18T13:03:31.090Z,101730.93000000001
2023-04-18T13:07:30.508Z,101726.62
2023-04-18T13:11:30.518Z,101718.84
2023-04-18T13:15:30.073Z,101729.33
2023-04-18T13:19:30.659Z,101724.89
2023-04-18T13:23:29.961Z,101721.77
2023-04-18T13:27:30.348Z,101714.28
2023-04-18T13:31:30.465Z,101714.58
2023-04-18T13:35:30.234Z,101719.39
2023-04-18T13:39:32.236Z,101722.54000000001
2023-04-18T13:47:30.640Z,101710.31
2023-04-18T13:51:30.700Z,101707.56999999999
2023-04-18T13:55:30.165Z,101704.90999999999
2023-04-18T13:59:31.141Z,101699.29
2023-04-18T14:03:30.569Z,101705.33
2023-04-18T14:07:30.251Z,101708.47
2023-04-18T14:11:30.323Z,101707.01000000001
2023-04-18T14:15:32.067Z,101705.92
2023-04-18T14:19:30.284Z,101707.69
2023-04-18T14:23:30.181Z,101703.61
2023-04-18T14:27:30.397Z,101713.17
2023-04-18T14:31:30.300Z,101700.21
2023-04-18T14:35:31.188Z,101696.3
2023-04-18T14:39:30.425Z,101697.38
2023-04-18T14:43:30.506Z,101697.89
2023-04-18T14:47:33.545Z,101693.59
2023-04-18T14:51:30.356Z,101695.79
2023-04-18T14:55:32.536Z,101687.53
2023-04-18T14:59:30.432Z,101687.36
2023-04-18T15:03:31.127Z,101690.75
2023-04-18T15:07:30.646Z,101691.24
2023-04-18T15:11:30.309Z,101691.81999999999
2023-04-18T15:15:33.983Z,101690.23
2023-04-18T15:19:30.871Z,101679.22
2023-04-18T15:23:30.947Z,101686.08
2023-04-18T15:27:30.374Z,101671.77
2023-04-18T15:31:30.598Z,101675.5
2023-04-18T15:35:30.523Z,101674.17
2023-04-18T15:39:30.460Z,101674.17
2023-04-18T15:43:30.546Z,101664.58
2023-04-18T15:47:32.655Z,101667.02
2023-04-18T15:51:30.602Z,101663.01
2023-04-18T15:55:30.530Z,101663.17
2023-04-18T16:07:30.667Z,101665.61
2023-04-18T16:11:30.492Z,101665.86
2023-04-18T16:15:30.760Z,101663.03
2023-04-18T16:19:31.043Z,101663.34000000001
2023-04-18T16:23:31.232Z,101662.73
2023-04-18T16:27:31.122Z,101664.75
2023-04-18T16:31:30.763Z,101664.03
2023-04-18T16:35:30.708Z,101657.93
2023-04-18T16:39:30.841Z,101663.17
2023-04-18T16:43:35.212Z,101667.66
2023-04-18T16:47:30.695Z,101666.18
2023-04-18T16:51:30.701Z,101666.76999999999
2023-04-18T16:55:30.943Z,101666.08
2023-04-18T16:59:30.876Z,101671.77
2023-04-18T17:03:31.684Z,101675.15
2023-04-18T17:07:30.631Z,101672.70999999999
2023-04-18T17:11:33.721Z,101670.19
2023-04-18T17:15:30.660Z,101669.19
2023-04-18T17:19:30.819Z,101668.3
2023-04-18T17:23:32.791Z,101671.56
2023-04-18T17:27:30.695Z,101670.75
2023-04-18T17:31:31.471Z,101664.72
2023-04-18T17:35:31.333Z,101667.94
2023-04-18T17:39:30.836Z,101671.28
2023-04-18T17:43:30.965Z,101668.06
2023-04-18T17:51:30.952Z,101667.8
2023-04-18T17:55:30.918Z,101669.0
2023-04-18T17:59:36.462Z,101667.17
2023-04-18T18:03:31.019Z,101674.05
2023-04-18T18:07:33.861Z,101668.96
2023-04-18T18:11:31.008Z,101667.64
2023-04-18T18:15:31.048Z,101671.06
2023-04-18T18:19:30.992Z,101671.41
2023-04-18T18:23:30.994Z,101679.72
2023-04-18T18:27:31.013Z,101679.71
2023-04-18T18:31:31.065Z,101682.47
2023-04-18T18:35:30.844Z,101684.34
2023-04-18T18:39:31.055Z,101686.08
2023-04-18T18:43:31.514Z,101684.56
2023-04-18T18:47:31.019Z,101679.22
2023-04-18T18:51:31.668Z,101683.7
2023-04-18T18:55:31.111Z,101685.99
2023-04-18T18:59:31.049Z,101692.43000000001
2023-04-18T19:03:31.256Z,101694.75
2023-04-18T19:11:31.114Z,101702.70000000001
2023-04-18T19:15:31.124Z,101709.33
2023-04-18T19:19:32.182Z,101711.08
2023-04-18T19:23:31.022Z,101706.87000000001
2023-04-18T19:31:31.156Z,101709.03
2023-04-18T19:35:31.040Z,101717.7
2023-04-18T19:39:31.103Z,101719.47
2023-04-18T19:43:31.267Z,101716.04999999999
2023-04-18T19:47:32.842Z,101711.81
2023-04-18T19:51:31.423Z,101714.29000000001
2023-04-18T19:55:31.303Z,101715.44
2023-04-18T19:59:31.091Z,101710.49
2023-04-18T20:03:32.306Z,101718.03
2023-04-18T20:10:36.428Z,101715.45
2023-04-18T20:15:31.209Z,101713.81
2023-04-18T20:19:31.290Z,101712.3
2023-04-18T20:23:31.389Z,101710.72
2023-04-18T20:27:31.353Z,101709.83
2023-04-18T20:35:31.302Z,101718.33
2023-04-18T20:39:31.537Z,101717.21
2023-04-18T20:43:35.556Z,101724.15999999999
2023-04-18T20:47:32.381Z,101721.94
2023-04-18T20:51:31.499Z,101722.49
2023-04-18T20:55:31.285Z,101727.15
2023-04-18T20:59:31.552Z,101726.34000000001
2023-04-18T21:03:31.431Z,101730.17
2023-04-18T21:11:31.583Z,101730.61
2023-04-18T21:15:31.365Z,101728.12
2023-04-18T21:19:31.443Z,101726.59
2023-04-18T21:27:31.537Z,101724.13
2023-04-18T21:31:32.529Z,101719.92
2023-04-18T21:35:31.668Z,101711.1
2023-04-18T21:39:31.391Z,101705.92
2023-04-18T21:43:31.635Z,101700.19
2023-04-18T21:47:31.866Z,101702.89
2023-04-18T21:55:31.571Z,101705.90999999999
2023-04-18T22:03:32.954Z,101701.45
2023-04-18T22:11:32.226Z,101699.95
2023-04-18T22:15:32.306Z,101689.73999999999
2023-04-18T22:19:32.304Z,101690.36
2023-04-18T22:27:32.012Z,101693.2
2023-04-18T22:31:31.567Z,101702.44
2023-04-18T22:35:31.800Z,101701.65
2023-04-18T22:43:31.834Z,101702.03
2023-04-18T22:47:32.564Z,101693.58
2023-04-18T22:55:31.815Z,101692.81
2023-04-18T23:03:33.276Z,101696.47
2023-04-18T23:07:32.325Z,101693.42
2023-04-18T23:11:31.785Z,101695.2
2023-04-18T23:15:31.693Z,101693.91
2023-04-18T23:19:31.790Z,101695.14
2023-04-18T23:27:31.815Z,101698.42
2023-04-18T23:31:31.892Z,101699.8
2023-04-18T23:35:31.801Z,101694.36
2023-04-18T23:39:31.842Z,101695.11
2023-04-18T23:43:32.467Z,101697.88
2023-04-18T23:47:31.888Z,101698.46
2023-04-18T23:51:31.774Z,101695.43
2023-04-18T23:55:31.772Z,101695.82
2023-04-18T23:59:31.889Z,101700.8
